Time;durP1;ratioP1;P1;durP2;ratioP2;P2;SDS_P1;SDS_P2;PMS_P1;PMS_P2;Temp;Humidity;BMP_temperature;BMP_pressure;BME280_temperature;BME280_humidity;BME280_pressure;Samples;Min_cycle;Max_cycle;Signal;HPM_P1;HPM_P2
2021/06/01 00:01:59;;;;;;;0.55;0.55;;;;;;;9.89;89.14;98456.13;5071935;28;20098;-78
2021/06/01 00:04:24;;;;;;;0.20;0.20;;;;;;;9.37;90.17;98373.66;5071841;28;20119;-80
2021/06/01 00:06:50;;;;;;;0.40;0.40;;;;;;;9.54;90.34;98413.75;5072670;28;20031;-81
2021/06/01 00:09:18;;;;;;;0.35;0.35;;;;;;;9.43;89.85;98390.44;5075395;28;20178;-80
2021/06/01 00:11:44;;;;;;;0.40;0.40;;;;;;;9.41;89.45;98390.88;5075900;28;20044;-81
2021/06/01 00:14:11;;;;;;;0.30;0.30;;;;;;;9.78;89.19;98441.84;5075824;28;20078;-78
2021/06/01 00:16:37;;;;;;;0.30;0.30;;;;;;;9.88;88.25;98460.09;5075055;28;20025;-78
2021/06/01 00:19:06;;;;;;;0.50;0.50;;;;;;;9.82;87.65;98427.97;5075412;28;20097;-79
2021/06/01 00:21:32;;;;;;;0.40;0.40;;;;;;;9.82;88.21;98439.78;5074993;28;20107;-81
2021/06/01 00:23:57;;;;;;;0.20;0.20;;;;;;;9.56;87.76;98391.25;5075006;28;20456;-79
2021/06/01 00:26:23;;;;;;;0.30;0.30;;;;;;;9.78;87.75;98442.63;5074999;28;20043;-79
2021/06/01 00:28:50;;;;;;;0.38;0.38;;;;;;;9.72;89.73;98447.13;5074929;28;20028;-77
2021/06/01 00:31:16;;;;;;;0.30;0.30;;;;;;;9.38;89.12;98384.25;5074987;28;20021;-77
2021/06/01 00:33:41;;;;;;;0.38;0.38;;;;;;;9.42;87.88;98397.16;5074814;28;20028;-78
2021/06/01 00:36:07;;;;;;;1.40;0.95;;;;;;;9.71;88.48;98448.34;5075328;28;20024;-78
2021/06/01 00:38:34;;;;;;;0.43;0.43;;;;;;;9.74;86.82;98444.72;5075447;28;20094;-78
2021/06/01 00:40:59;;;;;;;0.30;0.30;;;;;;;9.82;86.06;98431.50;5074675;28;20021;-78
2021/06/01 00:43:25;;;;;;;0.40;0.40;;;;;;;9.80;86.92;98453.22;5074705;28;20036;-79
2021/06/01 00:45:50;;;;;;;1.00;1.00;;;;;;;9.76;86.20;98428.47;5074666;28;20032;-78
2021/06/01 00:48:16;;;;;;;1.65;0.55;;;;;;;9.62;85.49;98408.81;5075139;28;20032;-79
2021/06/01 00:50:41;;;;;;;0.30;0.30;;;;;;;9.64;84.74;98403.66;5075322;28;20025;-78
2021/06/01 00:53:08;;;;;;;0.45;0.45;;;;;;;9.95;85.77;98459.09;5074429;28;20431;-79
2021/06/01 00:55:35;;;;;;;0.20;0.20;;;;;;;9.61;86.63;98430.09;5074943;28;20029;-77
2021/06/01 00:58:00;;;;;;;0.40;0.40;;;;;;;9.60;87.24;98436.84;5074697;28;20029;-77
2021/06/01 01:02:56;;;;;;;0.20;0.20;;;;;;;9.76;85.76;98455.31;5075621;28;20097;-78
2021/06/01 01:05:25;;;;;;;0.52;0.50;;;;;;;9.40;85.86;98378.31;5074707;28;20043;-78
2021/06/01 01:08:04;;;;;;;0.20;0.20;;;;;;;9.73;84.59;98412.03;5075021;28;20094;-77
2021/06/01 01:10:33;;;;;;;0.20;0.20;;;;;;;9.78;85.69;98398.47;5074271;28;20036;-78
2021/06/01 01:13:00;;;;;;;;;;;;;;;10.15;84.42;98445.91;5074544;28;20111;-76
2021/06/01 01:15:28;;;;;;;0.90;0.70;;;;;;;10.05;84.71;98438.72;5074059;28;19958;-77
2021/06/01 01:17:56;;;;;;;0.20;0.20;;;;;;;9.80;84.75;98387.78;5074552;28;20058;-77
2021/06/01 01:21:00;;;;;;;0.25;0.25;;;;;;;9.96;83.44;98408.22;5074433;28;20028;-76
2021/06/01 01:23:34;;;;;;;0.50;0.50;;;;;;;9.64;83.72;98357.53;5073704;28;20040;-79
2021/06/01 01:26:11;;;;;;;0.20;0.20;;;;;;;10.04;83.96;98431.66;5073846;28;20024;-77
2021/06/01 01:28:58;;;;;;;0.20;0.20;;;;;;;10.18;84.40;98447.84;5074386;28;20036;-77
2021/06/01 01:31:56;;;;;;;0.63;0.55;;;;;;;9.73;84.49;98384.47;5073704;28;20029;-77
2021/06/01 01:34:24;;;;;;;0.30;0.30;;;;;;;10.03;85.04;98461.22;5074051;28;20037;-76
2021/06/01 01:36:50;;;;;;;0.32;0.32;;;;;;;9.59;85.55;98384.84;5074075;28;20056;-78
2021/06/01 01:39:17;;;;;;;0.50;0.50;;;;;;;9.68;82.93;98410.59;5073371;28;20123;-77
2021/06/01 01:41:44;;;;;;;0.30;0.30;;;;;;;9.80;82.99;98404.34;5073527;28;20032;-78
2021/06/01 01:44:13;;;;;;;0.47;0.47;;;;;;;9.88;82.59;98410.44;5074489;28;20094;-78
2021/06/01 01:49:16;;;;;;;0.43;0.43;;;;;;;9.97;83.06;98438.16;5074605;28;20035;-78
2021/06/01 01:51:47;;;;;;;1.10;1.10;;;;;;;10.11;83.46;98445.25;5073947;28;20150;-78
2021/06/01 01:54:17;;;;;;;0.20;0.20;;;;;;;9.95;83.88;98423.22;5073313;28;20064;-77
2021/06/01 01:56:46;;;;;;;0.28;0.28;;;;;;;9.70;84.44;98386.13;5073711;28;20115;-78
2021/06/01 01:59:24;;;;;;;0.28;0.28;;;;;;;10.03;83.06;98436.41;5072827;28;20032;-80
2021/06/01 02:01:52;;;;;;;0.30;0.30;;;;;;;9.79;82.68;98390.97;5074097;28;20443;-77
2021/06/01 02:04:22;;;;;;;0.80;0.80;;;;;;;9.79;83.09;98402.03;5072997;28;20028;-74
2021/06/01 02:06:48;;;;;;;0.40;0.40;;;;;;;10.19;82.63;98438.31;5073206;28;20031;-75
2021/06/01 02:09:14;;;;;;;0.40;0.40;;;;;;;9.96;81.82;98397.19;5072988;28;20028;-76
2021/06/01 02:11:39;;;;;;;0.20;0.20;;;;;;;10.27;81.89;98438.88;5073054;28;20077;-78
2021/06/01 02:14:07;;;;;;;0.20;0.20;;;;;;;10.31;81.16;98428.53;5072919;28;20024;-78
2021/06/01 02:16:35;;;;;;;0.20;0.20;;;;;;;9.85;82.69;98378.19;5072825;28;20025;-79
2021/06/01 02:19:03;;;;;;;0.20;0.20;;;;;;;10.05;81.72;98419.41;5072795;28;20031;-79
2021/06/01 02:42:38;;;;;;;0.40;0.40;;;;;;;10.53;81.05;98424.66;5027853;27;20396;-78
2021/06/01 02:45:05;;;;;;;0.90;0.88;;;;;;;10.28;81.20;98396.25;5026347;28;20085;-79
2021/06/01 02:47:31;;;;;;;0.38;0.38;;;;;;;10.58;80.76;98424.09;5025822;28;20028;-77
2021/06/01 02:49:57;;;;;;;0.40;0.40;;;;;;;10.28;81.93;98390.72;5025985;28;20025;-77
2021/06/01 02:52:24;;;;;;;0.47;0.47;;;;;;;10.11;83.62;98384.53;5025820;27;20057;-78
2021/06/01 02:54:49;;;;;;;0.47;0.47;;;;;;;10.35;83.19;98429.94;5026000;28;20476;-77
2021/06/01 02:57:18;;;;;;;0.68;0.68;;;;;;;10.10;83.39;98388.50;5025682;28;20040;-77
2021/06/01 02:59:43;;;;;;;;;;;;;;;10.19;84.45;98432.78;5026153;28;20074;-77
2021/06/01 03:02:09;;;;;;;0.63;0.63;;;;;;;9.85;84.38;98383.72;5025776;28;19916;-78
2021/06/01 03:04:34;;;;;;;0.20;0.20;;;;;;;10.02;84.87;98428.53;5025657;28;20491;-77
2021/06/01 03:07:00;;;;;;;0.45;0.45;;;;;;;9.81;84.76;98418.91;5026410;28;20108;-77
2021/06/01 03:09:26;;;;;;;1.55;0.47;;;;;;;9.72;86.59;98377.38;5025625;28;20026;-77
2021/06/01 03:11:52;;;;;;;0.20;0.20;;;;;;;10.04;85.61;98413.09;5025532;28;20029;-77
2021/06/01 03:14:19;;;;;;;0.40;0.40;;;;;;;10.15;84.33;98424.59;5025513;28;20507;-76
2021/06/01 03:16:44;;;;;;;0.28;0.28;;;;;;;10.34;84.56;98428.41;5025848;28;20053;-77
2021/06/01 03:19:10;;;;;;;0.20;0.20;;;;;;;10.23;85.14;98389.31;5025551;27;20029;-78
2021/06/01 03:21:37;;;;;;;0.40;0.40;;;;;;;10.40;82.39;98384.44;5025891;28;20025;-78
2021/06/01 03:24:02;;;;;;;0.30;0.30;;;;;;;10.73;84.33;98426.41;5026028;28;20040;-77
